Bridgeport, NE (69336)

7:01 PM MDT on May 22, 2017 (GMT -0600)
Bridgeport Ampride | | Change Station

Elev 3671 ft 41.67 °N, 103.10 °W | Updated 9 minutes ago

Partly Cloudy
Partly Cloudy
52.1 °F
Feels Like 52.1 °F
N
11.0
Wind Variable Wind from East
Gusts 25.0 mph

Today
High -- | Low -- °F
--% Chance of Precip.
Yesterday
High -- | Low -- °F
Precip. -- in
Pressure 30.12 in
Visibility 10.0 miles
Clouds Few 7500 ft
Scattered Clouds 9500 ft
Dew Point 40 °F
Humidity 63%
Rainfall 0.00 in
Snow Depth Not available.
5:26 AM 8:12 PM
Waning Crescent, 11% visible
METAR KBFF 230053Z AUTO 35015G21KT 10SM FEW075 SCT095 10/03 A3013 RMK AO2 PK WND 35038/0010 RAB01E34 SLP200 P0000 T01000033
Pressure 30.12 in
Visibility 10.0 miles
Clouds Few 7500 ft
Scattered Clouds 9500 ft
Dew Point 40 °F
Humidity 63%
Rainfall 0.00 in
Snow Depth Not available.
5:26 AM 8:12 PM
Waning Crescent, 11% visible
METAR KBFF 230053Z AUTO 35015G21KT 10SM FEW075 SCT095 10/03 A3013 RMK AO2 PK WND 35038/0010 RAB01E34 SLP200 P0000 T01000033

Get Severe Weather Alerts

Thanks for signing up!

Be on the lookout for a verification email in your inbox.

You'll start receiving the daily forecast at 6 AM.

×

10-Day Weather Forecast

Almanac

Astronomy

May. 22, 2017 Rise Set
Actual Time
Civil Twilight
Nautical Twilight
Astronomical Twilight
Moon
Length of Visible Light
Length of Day
Tomorrow will be .
, % of the Moon is Illuminated

Today's Extremes

State Highs State Lows

Community

WunderPhotos

Category 6

Welcome to Category 6. This is the collective home for Weather Underground's featured writeups by Dr. Jeff Masters (right), Bob Henson (left), Chris Burt, and other regular contributors.

Nearby

Air Quality

  Air Quality AQ Index Pollutant
Not available.

Snow Depth

Station Depth Elevation

Earthquake Activity

City Distance Mag. Time & Date
Minimum magnitude displayed is 2.5.

Coastal Water Temperatures

Place Temperature

Stations

Nearby Weather Stations

Station Location Temp. Windchill Dew Point Humidity Wind Precip. Elev Updated Type
                   

Watches & Warnings

There are currently no watches in effect.